Time;durP1;ratioP1;P1;durP2;ratioP2;P2;SDS_P1;SDS_P2;PMS_P1;PMS_P2;Temp;Humidity;BMP_temperature;BMP_pressure;BME280_temperature;BME280_humidity;BME280_pressure;Samples;Min_cycle;Max_cycle;Signal;HPM_P1;HPM_P2
2022/02/26 00:01:32;;;;;;;63.03;33.17;;;;;;;;;;4447178;32;20259;-57
2022/02/26 00:03:58;;;;;;;70.37;35.87;;;;;;;;;;4446847;32;20620;-58
2022/02/26 00:06:23;;;;;;;76.67;37.67;;;;;;;;;;4447100;32;20383;-57
2022/02/26 00:08:49;;;;;;;98.60;52.13;;;;;;;;;;4447033;32;20367;-58
2022/02/26 00:11:14;;;;;;;102.57;48.43;;;;;;;;;;4445518;32;20399;-57
2022/02/26 00:13:40;;;;;;;85.73;46.10;;;;;;;;;;4446674;32;20295;-57
2022/02/26 00:16:05;;;;;;;87.83;42.87;;;;;;;;;;4446594;32;20259;-57
2022/02/26 00:18:31;;;;;;;75.63;38.40;;;;;;;;;;4437063;32;20440;-57
2022/02/26 00:20:56;;;;;;;75.33;38.40;;;;;;;;;;4443185;32;20311;-57
2022/02/26 00:23:22;;;;;;;64.77;31.80;;;;;;;;;;4446931;32;20568;-57
2022/02/26 00:25:47;;;;;;;86.80;39.03;;;;;;;;;;4447027;32;20378;-57
2022/02/26 00:28:13;;;;;;;90.33;36.97;;;;;;;;;;4446606;32;20771;-58
2022/02/26 00:30:39;;;;;;;82.17;38.63;;;;;;;;;;4449647;32;20859;-58
2022/02/26 00:33:05;;;;;;;76.57;38.33;;;;;;;;;;4449066;32;20671;-57
2022/02/26 00:35:31;;;;;;;90.30;43.53;;;;;;;;;;4448092;32;20709;-56
2022/02/26 00:37:56;;;;;;;96.03;47.10;;;;;;;;;;4449171;32;20321;-56
2022/02/26 00:40:22;;;;;;;103.93;49.87;;;;;;;;;;4449408;32;20225;-56
2022/02/26 00:42:48;;;;;;;103.13;47.40;;;;;;;;;;4449236;32;20370;-57
2022/02/26 00:45:13;;;;;;;90.80;41.37;;;;;;;;;;4448017;32;20734;-56
2022/02/26 00:47:39;;;;;;;86.23;46.90;;;;;;;;;;4449210;32;20333;-57
2022/02/26 00:50:05;;;;;;;107.33;50.97;;;;;;;;;;4449250;32;20221;-57
2022/02/26 00:52:33;;;;;;;95.70;46.43;;;;;;;;;;4449529;32;20240;-57
2022/02/26 00:55:00;;;;;;;102.60;49.60;;;;;;;;;;4449179;32;20285;-58
2022/02/26 00:57:25;;;;;;;106.07;53.60;;;;;;;;;;4449292;32;20200;-57
2022/02/26 00:59:52;;;;;;;105.40;50.20;;;;;;;;;;4449238;32;20352;-57
2022/02/26 01:02:18;;;;;;;91.93;46.03;;;;;;;;;;4449419;32;20203;-57
2022/02/26 01:04:44;;;;;;;86.23;39.97;;;;;;;;;;4449255;32;20228;-57
2022/02/26 01:07:10;;;;;;;79.13;36.80;;;;;;;;;;4447751;32;20240;-57
2022/02/26 01:09:37;;;;;;;64.87;29.97;;;;;;;;;;4449505;32;21097;-57
2022/02/26 01:12:04;;;;;;;47.90;24.73;;;;;;;;;;4447714;32;20235;-57
2022/02/26 01:14:30;;;;;;;43.13;24.10;;;;;;;;;;4447516;32;20220;-57
2022/02/26 01:16:55;;;;;;;46.83;20.87;;;;;;;;;;4448689;32;20325;-57
2022/02/26 01:19:21;;;;;;;54.27;24.30;;;;;;;;;;4433542;32;20609;-57
2022/02/26 01:21:47;;;;;;;47.93;25.37;;;;;;;;;;4433354;32;20267;-57
2022/02/26 01:24:13;;;;;;;47.93;25.50;;;;;;;;;;4433815;32;20454;-57
2022/02/26 01:26:39;;;;;;;52.20;27.27;;;;;;;;;;4432151;32;20316;-57
2022/02/26 01:29:05;;;;;;;51.43;25.17;;;;;;;;;;4431259;32;20345;-57
2022/02/26 01:31:33;;;;;;;51.63;25.80;;;;;;;;;;4433458;32;20679;-57
2022/02/26 01:33:59;;;;;;;68.00;29.90;;;;;;;;;;4433015;32;20224;-57
2022/02/26 01:36:26;;;;;;;96.60;43.50;;;;;;;;;;4432368;32;20327;-57
2022/02/26 01:38:52;;;;;;;103.43;50.63;;;;;;;;;;4434695;32;20624;-57
2022/02/26 01:41:17;;;;;;;139.30;64.47;;;;;;;;;;4448242;32;20337;-57
2022/02/26 01:43:43;;;;;;;157.10;69.07;;;;;;;;;;4448651;32;20276;-57
2022/02/26 01:46:10;;;;;;;147.83;68.43;;;;;;;;;;4448742;32;20685;-57
2022/02/26 01:48:36;;;;;;;141.40;61.93;;;;;;;;;;4448355;32;20220;-57
2022/02/26 01:51:03;;;;;;;138.93;60.83;;;;;;;;;;4447504;32;20714;-58
2022/02/26 01:53:29;;;;;;;117.27;54.90;;;;;;;;;;4447996;32;20288;-57
2022/02/26 01:55:55;;;;;;;119.90;54.37;;;;;;;;;;4448282;32;20251;-57
2022/02/26 01:58:20;;;;;;;112.10;56.40;;;;;;;;;;4447043;32;20290;-57
2022/02/26 02:00:46;;;;;;;122.67;55.93;;;;;;;;;;4447125;32;20255;-57
2022/02/26 02:03:12;;;;;;;127.77;59.67;;;;;;;;;;4448028;32;20239;-57
2022/02/26 02:05:38;;;;;;;155.50;66.33;;;;;;;;;;4448300;32;20573;-57
2022/02/26 02:08:03;;;;;;;151.93;62.93;;;;;;;;;;4447924;32;20296;-56
2022/02/26 02:10:29;;;;;;;155.50;62.87;;;;;;;;;;4448350;32;20257;-57
2022/02/26 02:12:54;;;;;;;148.03;58.83;;;;;;;;;;4446775;32;20652;-57
2022/02/26 02:15:35;;;;;;;129.17;53.60;;;;;;;;;;4447996;32;20221;-57
2022/02/26 02:18:02;;;;;;;119.83;48.67;;;;;;;;;;4440052;32;20287;-57
2022/02/26 02:20:28;;;;;;;87.97;42.83;;;;;;;;;;4433729;32;20266;-57
2022/02/26 02:22:53;;;;;;;92.77;37.93;;;;;;;;;;4463464;32;20295;-56
2022/02/26 02:25:26;;;;;;;91.80;36.67;;;;;;;;;;4443835;32;20302;-57
2022/02/26 02:27:51;;;;;;;93.87;42.67;;;;;;;;;;4447970;32;20281;-56
2022/02/26 02:30:17;;;;;;;92.13;39.97;;;;;;;;;;4447972;32;20240;-57
2022/02/26 02:32:43;;;;;;;92.03;42.27;;;;;;;;;;4447678;32;20204;-57
2022/02/26 02:35:22;;;;;;;92.90;43.43;;;;;;;;;;4447583;32;20240;-58
2022/02/26 02:37:48;;;;;;;80.13;38.23;;;;;;;;;;4447817;32;20618;-57
2022/02/26 02:40:14;;;;;;;96.77;43.50;;;;;;;;;;4447626;32;20319;-56
2022/02/26 02:42:39;;;;;;;109.37;48.33;;;;;;;;;;4446133;32;20327;-56
2022/02/26 02:45:05;;;;;;;114.97;50.10;;;;;;;;;;4447068;32;20296;-57
2022/02/26 02:47:31;;;;;;;107.17;47.20;;;;;;;;;;4446915;32;20624;-57
2022/02/26 02:49:56;;;;;;;112.17;44.77;;;;;;;;;;4445779;32;20728;-57
2022/02/26 02:52:22;;;;;;;93.63;43.83;;;;;;;;;;4447375;32;20208;-57
2022/02/26 02:54:47;;;;;;;80.83;41.37;;;;;;;;;;4447250;32;20288;-57
2022/02/26 02:57:12;;;;;;;86.93;39.30;;;;;;;;;;4447191;32;20258;-57
2022/02/26 02:59:38;;;;;;;77.13;37.13;;;;;;;;;;4447350;32;20691;-57
2022/02/26 03:02:04;;;;;;;75.27;36.80;;;;;;;;;;4447427;32;20292;-57
2022/02/26 03:04:29;;;;;;;91.00;40.53;;;;;;;;;;4446912;32;20268;-57
2022/02/26 03:06:55;;;;;;;105.50;47.07;;;;;;;;;;4446825;32;20561;-57
2022/02/26 03:09:20;;;;;;;91.97;43.17;;;;;;;;;;4445998;32;20330;-56
2022/02/26 03:11:46;;;;;;;97.23;44.50;;;;;;;;;;4447375;32;20267;-56
2022/02/26 03:14:11;;;;;;;87.07;44.57;;;;;;;;;;4447332;32;20288;-56
2022/02/26 03:16:38;;;;;;;109.50;46.37;;;;;;;;;;4446707;32;20288;-57
2022/02/26 03:19:04;;;;;;;91.90;42.97;;;;;;;;;;4433896;32;20304;-56
2022/02/26 03:21:29;;;;;;;87.03;43.33;;;;;;;;;;4444099;32;20698;-57
2022/02/26 03:23:55;;;;;;;98.73;45.57;;;;;;;;;;4446967;32;20272;-57
2022/02/26 03:26:20;;;;;;;81.27;41.73;;;;;;;;;;4446778;32;20260;-57
2022/02/26 03:28:45;;;;;;;92.83;44.03;;;;;;;;;;4446977;32;20367;-57
2022/02/26 03:31:11;;;;;;;92.60;44.03;;;;;;;;;;4433144;32;20260;-57
2022/02/26 03:33:37;;;;;;;99.00;41.30;;;;;;;;;;4446555;32;20680;-57
2022/02/26 03:36:03;;;;;;;87.00;39.93;;;;;;;;;;4433179;32;20240;-57
2022/02/26 03:38:28;;;;;;;82.13;36.77;;;;;;;;;;4447083;32;20219;-57
2022/02/26 03:40:53;;;;;;;85.03;41.20;;;;;;;;;;4446948;32;20321;-57
2022/02/26 03:43:19;;;;;;;88.90;41.03;;;;;;;;;;4446020;32;20237;-58
2022/02/26 03:45:45;;;;;;;82.60;39.73;;;;;;;;;;4447319;32;20279;-56
2022/02/26 03:48:10;;;;;;;82.53;37.77;;;;;;;;;;4446781;32;20303;-57
2022/02/26 03:50:36;;;;;;;68.43;34.10;;;;;;;;;;4447630;32;20317;-56
2022/02/26 03:53:01;;;;;;;78.20;36.30;;;;;;;;;;4447190;32;20361;-56
2022/02/26 03:55:27;;;;;;;63.57;29.60;;;;;;;;;;4437008;32;20268;-57
2022/02/26 03:57:52;;;;;;;70.20;34.33;;;;;;;;;;4431459;32;20197;-57
2022/02/26 04:00:18;;;;;;;57.23;26.37;;;;;;;;;;4443693;32;20708;-57
2022/02/26 04:02:44;;;;;;;57.33;25.90;;;;;;;;;;4431639;32;20354;-57
2022/02/26 04:05:10;;;;;;;61.27;27.83;;;;;;;;;;4445874;32;20722;-57
2022/02/26 04:07:38;;;;;;;49.13;27.70;;;;;;;;;;4434692;32;20223;-57
2022/02/26 04:10:04;;;;;;;45.53;26.73;;;;;;;;;;4433812;32;20479;-57
2022/02/26 04:12:29;;;;;;;56.00;27.90;;;;;;;;;;4434671;32;20223;-56
2022/02/26 04:14:55;;;;;;;56.63;29.93;;;;;;;;;;4434351;32;20729;-56
2022/02/26 04:17:20;;;;;;;59.07;30.73;;;;;;;;;;4449582;32;20228;-57
2022/02/26 04:19:47;;;;;;;63.53;30.37;;;;;;;;;;4450053;32;20278;-57
2022/02/26 04:22:12;;;;;;;52.33;25.60;;;;;;;;;;4449954;32;20277;-57
2022/02/26 04:24:38;;;;;;;57.70;28.70;;;;;;;;;;4450243;32;20583;-57
2022/02/26 04:27:03;;;;;;;59.07;29.27;;;;;;;;;;4449825;32;20282;-57
2022/02/26 04:29:29;;;;;;;65.90;31.77;;;;;;;;;;4449545;32;20291;-57
2022/02/26 04:31:55;;;;;;;76.53;34.20;;;;;;;;;;4449892;32;20209;-57
2022/02/26 04:34:20;;;;;;;61.20;28.40;;;;;;;;;;4450116;32;20288;-57
2022/02/26 04:36:46;;;;;;;51.80;24.80;;;;;;;;;;4435620;32;20291;-57
2022/02/26 04:39:11;;;;;;;34.50;18.07;;;;;;;;;;4434768;32;20383;-56
2022/02/26 04:41:37;;;;;;;33.60;16.03;;;;;;;;;;4434187;32;20225;-57
2022/02/26 04:44:02;;;;;;;44.67;16.60;;;;;;;;;;4434351;32;20685;-57
2022/02/26 04:46:28;;;;;;;24.90;14.83;;;;;;;;;;4434232;32;20648;-57
2022/02/26 04:48:53;;;;;;;42.03;18.97;;;;;;;;;;4433605;32;20391;-57
2022/02/26 04:51:19;;;;;;;43.23;24.47;;;;;;;;;;4434203;32;20275;-57
2022/02/26 04:53:44;;;;;;;37.77;20.33;;;;;;;;;;4434234;32;20307;-57
2022/02/26 04:56:10;;;;;;;45.33;21.13;;;;;;;;;;4433985;32;20683;-57
2022/02/26 04:58:36;;;;;;;48.87;21.10;;;;;;;;;;4432383;32;20279;-56
2022/02/26 05:01:03;;;;;;;38.17;21.43;;;;;;;;;;4434398;32;20245;-57
2022/02/26 05:03:29;;;;;;;55.37;27.93;;;;;;;;;;4434101;32;20200;-57
2022/02/26 05:05:54;;;;;;;48.90;25.80;;;;;;;;;;4433643;32;20327;-56
2022/02/26 05:08:20;;;;;;;58.27;23.33;;;;;;;;;;4433780;32;20333;-57
2022/02/26 05:10:46;;;;;;;42.80;24.27;;;;;;;;;;4434097;32;20323;-57
2022/02/26 05:13:11;;;;;;;51.13;26.10;;;;;;;;;;4433709;32;20205;-57
2022/02/26 05:15:37;;;;;;;49.07;22.90;;;;;;;;;;4436883;32;20319;-57
2022/02/26 05:18:03;;;;;;;46.60;24.73;;;;;;;;;;4448772;32;20229;-57
2022/02/26 05:20:30;;;;;;;51.63;22.77;;;;;;;;;;4439811;32;20669;-57
2022/02/26 05:22:57;;;;;;;53.67;25.27;;;;;;;;;;4433248;32;20639;-57
2022/02/26 05:25:22;;;;;;;66.87;27.77;;;;;;;;;;4433369;32;20220;-58
2022/02/26 05:27:48;;;;;;;76.87;33.23;;;;;;;;;;4432118;32;20263;-57
2022/02/26 05:30:15;;;;;;;83.20;37.80;;;;;;;;;;4432191;32;20320;-56
2022/02/26 05:32:41;;;;;;;87.57;42.93;;;;;;;;;;4433137;32;20263;-57
2022/02/26 05:35:08;;;;;;;89.50;44.47;;;;;;;;;;4433301;32;20723;-58
2022/02/26 05:37:34;;;;;;;98.40;42.03;;;;;;;;;;4432135;32;20323;-57
2022/02/26 05:39:59;;;;;;;85.63;39.77;;;;;;;;;;4442096;32;20259;-59
2022/02/26 05:42:25;;;;;;;82.63;40.77;;;;;;;;;;4447428;32;20305;-57
2022/02/26 05:44:50;;;;;;;91.57;39.77;;;;;;;;;;4447586;32;20259;-58
2022/02/26 05:47:16;;;;;;;79.47;38.67;;;;;;;;;;4448662;32;20292;-57
2022/02/26 05:49:41;;;;;;;81.90;43.13;;;;;;;;;;4448516;32;20403;-58
2022/02/26 05:52:07;;;;;;;91.37;46.73;;;;;;;;;;4448821;32;20228;-57
2022/02/26 05:54:33;;;;;;;104.40;46.90;;;;;;;;;;4447051;32;20232;-57
2022/02/26 05:56:59;;;;;;;95.00;43.80;;;;;;;;;;4447069;32;20275;-57
2022/02/26 05:59:24;;;;;;;93.57;43.53;;;;;;;;;;4448566;32;20680;-57
2022/02/26 06:01:50;;;;;;;103.00;46.57;;;;;;;;;;4447771;32;20281;-56
2022/02/26 06:04:15;;;;;;;103.23;45.73;;;;;;;;;;4446899;32;20717;-56
2022/02/26 06:06:41;;;;;;;94.57;44.97;;;;;;;;;;4446521;32;20348;-57
2022/02/26 06:09:06;;;;;;;91.93;46.37;;;;;;;;;;4448672;32;20428;-57
2022/02/26 06:11:32;;;;;;;96.50;48.63;;;;;;;;;;4448078;32;20330;-57
2022/02/26 06:13:57;;;;;;;96.33;46.20;;;;;;;;;;4448375;32;20327;-57
2022/02/26 06:16:23;;;;;;;80.17;41.83;;;;;;;;;;4448189;32;20543;-57
2022/02/26 06:18:48;;;;;;;92.97;39.50;;;;;;;;;;4448349;32;20279;-56
2022/02/26 06:21:14;;;;;;;93.73;42.63;;;;;;;;;;4447826;32;20342;-55
2022/02/26 06:23:40;;;;;;;88.40;44.67;;;;;;;;;;4448172;32;20329;-55
2022/02/26 06:26:05;;;;;;;80.00;41.87;;;;;;;;;;4448273;32;20665;-55
2022/02/26 06:28:31;;;;;;;76.60;42.43;;;;;;;;;;4447286;32;20739;-56
2022/02/26 06:30:56;;;;;;;79.40;41.13;;;;;;;;;;4448133;32;20283;-56
2022/02/26 06:33:22;;;;;;;85.87;38.43;;;;;;;;;;4446839;32;20302;-57
2022/02/26 06:35:47;;;;;;;65.57;34.73;;;;;;;;;;4447664;32;20248;-56
2022/02/26 06:38:13;;;;;;;69.63;33.13;;;;;;;;;;4447922;32;20248;-55
2022/02/26 06:40:39;;;;;;;67.40;32.93;;;;;;;;;;4448141;32;20263;-55
2022/02/26 06:43:04;;;;;;;69.73;36.87;;;;;;;;;;4447550;32;20331;-56
2022/02/26 06:45:31;;;;;;;72.40;32.97;;;;;;;;;;4447840;32;20256;-57
2022/02/26 06:47:56;;;;;;;65.87;34.47;;;;;;;;;;4445904;32;20628;-57
2022/02/26 06:50:22;;;;;;;79.43;38.47;;;;;;;;;;4447521;32;20255;-57
2022/02/26 06:52:47;;;;;;;83.57;40.73;;;;;;;;;;4447582;32;20539;-57
2022/02/26 06:55:13;;;;;;;81.90;43.07;;;;;;;;;;4446300;32;20334;-57
2022/02/26 06:57:40;;;;;;;80.10;42.90;;;;;;;;;;4447846;32;20393;-57
2022/02/26 07:00:07;;;;;;;91.53;47.63;;;;;;;;;;4447692;32;20281;-57
2022/02/26 07:02:32;;;;;;;91.10;47.73;;;;;;;;;;4446085;32;20353;-57
2022/02/26 07:04:58;;;;;;;100.67;47.17;;;;;;;;;;4446207;32;20236;-57
2022/02/26 07:07:23;;;;;;;93.60;48.20;;;;;;;;;;4447394;32;20956;-57
2022/02/26 07:09:49;;;;;;;110.43;53.77;;;;;;;;;;4447593;32;20311;-57
2022/02/26 07:12:16;;;;;;;108.43;50.97;;;;;;;;;;4447419;32;20244;-58
2022/02/26 07:14:43;;;;;;;95.37;52.70;;;;;;;;;;4447295;32;20327;-56
2022/02/26 07:17:08;;;;;;;117.57;57.27;;;;;;;;;;4445643;32;20546;-59
2022/02/26 07:19:34;;;;;;;108.70;55.33;;;;;;;;;;4447309;32;20287;-58
2022/02/26 07:21:59;;;;;;;103.03;56.97;;;;;;;;;;4447400;32;20240;-57
2022/02/26 07:24:26;;;;;;;100.07;54.73;;;;;;;;;;4446046;32;20431;-58
2022/02/26 07:26:51;;;;;;;104.33;53.73;;;;;;;;;;4447073;32;20257;-57
2022/02/26 07:29:17;;;;;;;103.80;57.37;;;;;;;;;;4447247;32;20699;-58
2022/02/26 07:31:42;;;;;;;118.60;50.67;;;;;;;;;;4445822;32;20579;-57
2022/02/26 07:34:08;;;;;;;98.50;52.80;;;;;;;;;;4447438;32;20319;-57
2022/02/26 07:36:34;;;;;;;112.43;55.90;;;;;;;;;;4447378;32;20349;-58
2022/02/26 07:39:01;;;;;;;100.43;51.80;;;;;;;;;;4448122;32;20759;-57
2022/02/26 07:41:26;;;;;;;104.17;50.80;;;;;;;;;;4450288;32;20275;-58
2022/02/26 07:43:52;;;;;;;82.67;47.43;;;;;;;;;;4450253;32;20392;-55
2022/02/26 07:46:17;;;;;;;90.87;45.80;;;;;;;;;;4450386;32;20240;-57
2022/02/26 07:48:43;;;;;;;85.13;45.33;;;;;;;;;;4448678;32;20244;-56
2022/02/26 07:51:08;;;;;;;71.47;38.43;;;;;;;;;;4450598;32;20288;-57
2022/02/26 07:53:34;;;;;;;68.93;37.10;;;;;;;;;;4450068;32;20311;-57
2022/02/26 07:55:59;;;;;;;61.60;34.40;;;;;;;;;;4436280;32;20232;-57
2022/02/26 07:58:25;;;;;;;56.83;31.67;;;;;;;;;;4450222;32;20234;-57
2022/02/26 08:00:51;;;;;;;108.30;55.90;;;;;;;;;;4450029;32;20290;-57
2022/02/26 08:03:16;;;;;;;61.30;32.90;;;;;;;;;;4450176;32;20638;-56
2022/02/26 08:05:42;;;;;;;72.93;37.53;;;;;;;;;;4450356;32;20236;-56
2022/02/26 08:08:07;;;;;;;64.90;36.53;;;;;;;;;;4450094;32;20284;-56
2022/02/26 08:10:34;;;;;;;61.63;33.90;;;;;;;;;;4450160;32;20632;-56
2022/02/26 08:12:59;;;;;;;69.10;39.03;;;;;;;;;;4449633;32;20593;-56
2022/02/26 08:15:26;;;;;;;65.53;39.97;;;;;;;;;;4449202;32;20289;-56
2022/02/26 08:17:52;;;;;;;68.63;39.93;;;;;;;;;;4448791;32;20283;-56
2022/02/26 08:20:19;;;;;;;69.67;37.17;;;;;;;;;;4441982;32;20233;-56
2022/02/26 08:22:46;;;;;;;57.83;34.30;;;;;;;;;;4434615;32;20737;-56
2022/02/26 08:25:13;;;;;;;63.50;36.03;;;;;;;;;;4434248;32;20291;-55
2022/02/26 08:27:39;;;;;;;64.43;39.00;;;;;;;;;;4433903;32;20237;-58
2022/02/26 08:30:06;;;;;;;65.50;36.97;;;;;;;;;;4443404;32;20339;-57
2022/02/26 08:32:31;;;;;;;77.83;42.83;;;;;;;;;;4434351;32;20205;-56
2022/02/26 08:34:57;;;;;;;72.07;40.20;;;;;;;;;;4433948;32;20302;-56
2022/02/26 08:37:22;;;;;;;66.93;41.07;;;;;;;;;;4432668;32;20682;-56
2022/02/26 08:39:48;;;;;;;94.00;48.40;;;;;;;;;;4441581;32;20288;-56
2022/02/26 08:42:13;;;;;;;66.90;41.67;;;;;;;;;;4448257;32;20818;-56
2022/02/26 08:44:40;;;;;;;53.23;23.97;;;;;;;;;;4448667;32;20297;-55
2022/02/26 08:47:07;;;;;;;52.50;31.47;;;;;;;;;;4448786;32;20662;-55
2022/02/26 08:49:33;;;;;;;61.67;34.30;;;;;;;;;;4446686;32;20258;-56
2022/02/26 08:51:58;;;;;;;62.50;30.67;;;;;;;;;;4449129;32;20276;-57
2022/02/26 08:54:24;;;;;;;50.27;25.10;;;;;;;;;;4447566;32;20324;-57
2022/02/26 08:56:49;;;;;;;52.80;28.70;;;;;;;;;;4449212;32;20330;-58
2022/02/26 08:59:15;;;;;;;52.50;28.43;;;;;;;;;;4449162;32;20293;-59
2022/02/26 09:01:41;;;;;;;54.60;29.10;;;;;;;;;;4449013;32;20273;-57
2022/02/26 09:04:07;;;;;;;44.57;28.50;;;;;;;;;;4449143;32;20315;-57
2022/02/26 09:06:34;;;;;;;46.03;26.00;;;;;;;;;;4448037;32;20385;-56
2022/02/26 09:09:00;;;;;;;31.33;18.70;;;;;;;;;;4449290;32;20273;-57
2022/02/26 09:11:27;;;;;;;23.80;16.83;;;;;;;;;;4446756;32;20684;-57
2022/02/26 09:13:53;;;;;;;34.03;16.20;;;;;;;;;;4445048;32;20262;-58
2022/02/26 09:16:18;;;;;;;29.13;17.67;;;;;;;;;;4447106;32;20459;-57
2022/02/26 09:18:44;;;;;;;26.87;17.20;;;;;;;;;;4447930;32;20759;-57
2022/02/26 09:21:09;;;;;;;34.13;17.03;;;;;;;;;;4448449;32;20237;-57
2022/02/26 09:23:37;;;;;;;23.73;15.80;;;;;;;;;;4449097;32;20213;-57
2022/02/26 09:26:04;;;;;;;26.77;16.07;;;;;;;;;;4449012;32;20353;-56
2022/02/26 09:28:34;;;;;;;20.03;14.37;;;;;;;;;;4449156;32;20595;-56
2022/02/26 09:31:01;;;;;;;24.43;13.90;;;;;;;;;;4447544;32;20272;-57
2022/02/26 09:33:30;;;;;;;26.70;14.43;;;;;;;;;;4448817;32;20730;-56
2022/02/26 09:35:57;;;;;;;22.77;13.13;;;;;;;;;;4448796;32;20620;-55
2022/02/26 09:38:23;;;;;;;27.57;14.80;;;;;;;;;;4447520;32;20269;-56
2022/02/26 09:40:49;;;;;;;27.93;15.43;;;;;;;;;;4449036;32;20625;-55
2022/02/26 09:43:14;;;;;;;24.70;14.73;;;;;;;;;;4448758;32;20365;-58
2022/02/26 09:45:40;;;;;;;47.90;27.87;;;;;;;;;;4448793;32;20274;-57
2022/02/26 09:48:05;;;;;;;29.03;16.47;;;;;;;;;;4447134;32;20268;-55
2022/02/26 09:50:31;;;;;;;31.93;15.10;;;;;;;;;;4449093;32;20534;-56
2022/02/26 09:52:57;;;;;;;15.80;12.40;;;;;;;;;;4448855;32;20736;-58
2022/02/26 09:55:23;;;;;;;26.57;15.80;;;;;;;;;;4448705;32;20240;-56
2022/02/26 09:57:49;;;;;;;26.80;13.47;;;;;;;;;;4447458;32;20618;-56
2022/02/26 10:00:15;;;;;;;15.20;10.67;;;;;;;;;;4448799;32;20341;-56
2022/02/26 10:02:47;;;;;;;22.40;11.37;;;;;;;;;;4448243;32;20245;-57
2022/02/26 10:05:12;;;;;;;21.33;12.20;;;;;;;;;;4448777;32;20224;-56
2022/02/26 10:07:39;;;;;;;19.53;11.80;;;;;;;;;;4446922;32;20318;-55
2022/02/26 10:10:15;;;;;;;23.07;12.57;;;;;;;;;;4448408;32;20227;-55
2022/02/26 10:12:41;;;;;;;23.80;11.53;;;;;;;;;;4447146;32;20282;-56
2022/02/26 10:15:25;;;;;;;18.20;10.50;;;;;;;;;;4447948;32;20226;-56
2022/02/26 10:17:59;;;;;;;19.93;8.80;;;;;;;;;;4448307;32;20320;-57
2022/02/26 10:20:25;;;;;;;21.80;10.50;;;;;;;;;;4448490;32;20266;-57
2022/02/26 10:22:53;;;;;;;17.07;12.33;;;;;;;;;;4446657;32;20268;-56
2022/02/26 10:25:24;;;;;;;24.50;11.43;;;;;;;;;;4448079;32;20317;-57
2022/02/26 10:27:52;;;;;;;19.63;12.80;;;;;;;;;;4448231;32;20327;-56
2022/02/26 10:30:25;;;;;;;21.13;10.60;;;;;;;;;;4433849;32;20247;-57
2022/02/26 10:33:11;;;;;;;17.37;10.13;;;;;;;;;;4431810;32;20765;-56
2022/02/26 10:35:39;;;;;;;27.17;12.30;;;;;;;;;;4432558;32;20315;-57
2022/02/26 10:38:14;;;;;;;20.37;10.77;;;;;;;;;;4432667;32;20339;-56
2022/02/26 10:40:54;;;;;;;23.50;12.13;;;;;;;;;;4431187;32;20748;-55
2022/02/26 10:43:39;;;;;;;18.33;11.67;;;;;;;;;;4431328;32;20292;-57
2022/02/26 10:46:22;;;;;;;20.43;10.50;;;;;;;;;;4432622;32;20228;-57
2022/02/26 10:48:50;;;;;;;33.37;16.53;;;;;;;;;;4430532;32;20781;-57
2022/02/26 10:51:18;;;;;;;20.60;10.63;;;;;;;;;;4432526;32;20257;-56
2022/02/26 10:53:44;;;;;;;15.27;9.70;;;;;;;;;;4426769;32;20236;-57
2022/02/26 10:56:12;;;;;;;16.30;9.37;;;;;;;;;;4432790;32;20562;-57
2022/02/26 10:58:39;;;;;;;15.17;9.30;;;;;;;;;;4432211;32;20293;-56
2022/02/26 11:01:08;;;;;;;13.63;9.50;;;;;;;;;;4432289;32;20338;-55
2022/02/26 11:03:35;;;;;;;30.87;12.37;;;;;;;;;;4442058;32;20607;-57
2022/02/26 11:06:02;;;;;;;26.27;12.70;;;;;;;;;;4447714;32;20479;-56
2022/02/26 11:08:29;;;;;;;25.20;12.87;;;;;;;;;;4446346;32;20695;-56
2022/02/26 11:10:56;;;;;;;17.60;9.80;;;;;;;;;;4447624;32;20331;-56
2022/02/26 11:13:22;;;;;;;16.20;9.47;;;;;;;;;;4447186;32;20240;-56
2022/02/26 11:15:51;;;;;;;19.73;8.87;;;;;;;;;;4447364;32;20280;-56
2022/02/26 11:18:18;;;;;;;18.00;7.87;;;;;;;;;;4445784;32;20794;-58
2022/02/26 11:20:44;;;;;;;13.70;7.57;;;;;;;;;;4447943;32;20561;-57
2022/02/26 11:23:11;;;;;;;15.50;7.87;;;;;;;;;;4447519;32;20247;-57
2022/02/26 11:25:37;;;;;;;13.70;7.60;;;;;;;;;;4447541;32;20315;-57
2022/02/26 11:28:03;;;;;;;15.37;7.87;;;;;;;;;;4446933;32;20212;-56
2022/02/26 11:30:37;;;;;;;9.37;6.67;;;;;;;;;;4431060;32;20401;-57
2022/02/26 11:33:05;;;;;;;19.10;9.43;;;;;;;;;;4430526;32;20256;-57
2022/02/26 11:35:31;;;;;;;14.20;8.83;;;;;;;;;;4417978;32;20615;-57
2022/02/26 11:38:04;;;;;;;18.83;9.10;;;;;;;;;;4432149;32;20260;-57
2022/02/26 11:40:33;;;;;;;11.40;7.50;;;;;;;;;;4444164;32;20228;-57
2022/02/26 11:42:59;;;;;;;8.83;6.87;;;;;;;;;;4446495;32;20680;-55
2022/02/26 11:45:34;;;;;;;14.33;7.23;;;;;;;;;;4440442;32;20312;-56
2022/02/26 11:48:08;;;;;;;10.07;6.97;;;;;;;;;;4431704;32;20260;-55
2022/02/26 11:50:38;;;;;;;10.43;6.87;;;;;;;;;;4431846;32;20229;-56
2022/02/26 11:53:10;;;;;;;11.87;6.43;;;;;;;;;;4431822;32;20304;-56
2022/02/26 11:55:49;;;;;;;12.20;7.13;;;;;;;;;;4443323;32;20233;-55
2022/02/26 11:58:37;;;;;;;18.40;6.47;;;;;;;;;;4432873;32;20577;-56
2022/02/26 12:01:08;;;;;;;10.40;5.87;;;;;;;;;;4447244;32;20243;-56
2022/02/26 12:03:45;;;;;;;9.83;6.47;;;;;;;;;;4445570;32;20267;-57
2022/02/26 12:06:11;;;;;;;8.97;5.37;;;;;;;;;;4446276;32;20577;-56
2022/02/26 12:08:44;;;;;;;11.27;6.77;;;;;;;;;;4447196;32;20287;-56
2022/02/26 12:11:23;;;;;;;8.27;5.60;;;;;;;;;;4447507;32;20657;-56
2022/02/26 12:13:54;;;;;;;10.27;6.07;;;;;;;;;;4445789;32;20236;-56
2022/02/26 12:16:22;;;;;;;14.90;6.30;;;;;;;;;;4446682;32;20668;-56
2022/02/26 12:18:54;;;;;;;16.23;6.37;;;;;;;;;;4445416;32;20236;-55
2022/02/26 12:21:20;;;;;;;10.33;6.40;;;;;;;;;;4430975;32;20259;-55
2022/02/26 12:24:06;;;;;;;16.10;7.07;;;;;;;;;;4461977;32;20288;-56
2022/02/26 12:27:06;;;;;;;12.83;6.93;;;;;;;;;;4463920;32;20208;-55
2022/02/26 12:29:44;;;;;;;7.80;5.20;;;;;;;;;;4442930;32;20707;-56
2022/02/26 12:32:25;;;;;;;16.63;9.43;;;;;;;;;;4431850;32;20248;-57
2022/02/26 12:35:01;;;;;;;10.50;6.37;;;;;;;;;;4419124;32;20608;-56
2022/02/26 12:37:36;;;;;;;14.63;6.10;;;;;;;;;;4432602;32;20653;-56
2022/02/26 12:40:08;;;;;;;9.60;5.43;;;;;;;;;;4442321;32;20349;-57
2022/02/26 12:42:44;;;;;;;8.93;5.30;;;;;;;;;;4447684;32;20272;-56
2022/02/26 12:45:14;;;;;;;11.50;7.07;;;;;;;;;;4448732;32;20285;-56
2022/02/26 12:47:41;;;;;;;18.23;6.97;;;;;;;;;;4449763;32;20248;-56
2022/02/26 12:50:09;;;;;;;9.97;5.27;;;;;;;;;;4448493;32;20351;-55
2022/02/26 12:52:38;;;;;;;8.67;4.23;;;;;;;;;;4450037;32;20231;-56
2022/02/26 12:55:15;;;;;;;11.33;4.97;;;;;;;;;;4447881;32;20282;-55
2022/02/26 12:57:43;;;;;;;16.13;5.43;;;;;;;;;;4449594;32;20205;-56
2022/02/26 13:00:12;;;;;;;10.50;4.03;;;;;;;;;;4449815;32;20719;-56
2022/02/26 13:02:41;;;;;;;7.73;5.13;;;;;;;;;;4449515;32;20230;-55
2022/02/26 13:05:06;;;;;;;9.67;5.17;;;;;;;;;;4449632;32;20287;-55
2022/02/26 13:07:32;;;;;;;10.30;4.57;;;;;;;;;;4449421;32;20244;-55
2022/02/26 13:09:58;;;;;;;9.43;4.70;;;;;;;;;;4449759;32;20266;-55
2022/02/26 13:12:29;;;;;;;6.67;3.93;;;;;;;;;;4449366;32;20296;-55
2022/02/26 13:15:07;;;;;;;14.73;6.37;;;;;;;;;;4449161;32;20697;-56
2022/02/26 13:17:34;;;;;;;10.13;5.87;;;;;;;;;;4449211;32;20267;-56
2022/02/26 13:20:04;;;;;;;11.20;6.87;;;;;;;;;;4443341;32;20395;-56
2022/02/26 13:22:48;;;;;;;9.13;5.77;;;;;;;;;;4433566;32;20216;-56
2022/02/26 13:25:18;;;;;;;9.00;5.27;;;;;;;;;;4433740;32;20245;-55
2022/02/26 13:27:45;;;;;;;18.07;10.00;;;;;;;;;;4433039;32;20569;-56
2022/02/26 13:30:11;;;;;;;24.97;16.70;;;;;;;;;;4446660;32;20555;-56
2022/02/26 13:32:41;;;;;;;11.93;5.60;;;;;;;;;;4447104;32;20509;-56
2022/02/26 13:35:07;;;;;;;11.27;6.13;;;;;;;;;;4447771;32;20737;-55
2022/02/26 13:37:34;;;;;;;24.80;11.97;;;;;;;;;;4447185;32;20319;-56
2022/02/26 13:39:59;;;;;;;15.87;10.47;;;;;;;;;;4447823;32;20228;-55
2022/02/26 13:42:27;;;;;;;13.33;7.30;;;;;;;;;;4448762;32;20208;-55
2022/02/26 13:44:59;;;;;;;16.67;8.80;;;;;;;;;;4448862;32;20477;-56
2022/02/26 13:47:24;;;;;;;31.03;18.07;;;;;;;;;;4448713;32;20795;-55
2022/02/26 13:49:56;;;;;;;8.63;5.27;;;;;;;;;;4448696;32;20243;-56
2022/02/26 13:52:24;;;;;;;14.97;6.43;;;;;;;;;;4448016;32;20577;-56
2022/02/26 13:54:52;;;;;;;9.53;6.27;;;;;;;;;;4447338;32;20629;-55
2022/02/26 13:57:22;;;;;;;13.47;8.03;;;;;;;;;;4446736;32;20301;-57
2022/02/26 13:59:49;;;;;;;16.10;7.73;;;;;;;;;;4447912;32;20355;-55
2022/02/26 14:02:26;;;;;;;13.00;4.63;;;;;;;;;;4447570;32;20364;-56
2022/02/26 14:04:57;;;;;;;15.83;10.30;;;;;;;;;;4447773;32;20225;-56
2022/02/26 14:07:46;;;;;;;12.63;10.73;;;;;;;;;;4448283;32;20212;-56
2022/02/26 14:10:14;;;;;;;8.10;5.20;;;;;;;;;;4448763;32;20216;-56
2022/02/26 14:12:48;;;;;;;9.83;4.37;;;;;;;;;;4447739;32;20339;-55
2022/02/26 14:15:15;;;;;;;15.77;6.70;;;;;;;;;;4447460;32;20255;-55
2022/02/26 14:17:44;;;;;;;20.13;8.03;;;;;;;;;;4448317;32;20197;-56
2022/02/26 14:20:13;;;;;;;33.57;11.73;;;;;;;;;;4440316;32;20240;-56